createdAt,value
2023-04-11T00:00:14.892Z,6.50
2023-04-11T00:02:41.644Z,7.03
2023-04-11T00:05:08.685Z,7.03
2023-04-11T00:07:35.774Z,6.70
2023-04-11T00:10:03.055Z,6.85
2023-04-11T00:12:29.633Z,6.85
2023-04-11T00:14:56.241Z,6.60
2023-04-11T00:17:23.777Z,7.40
2023-04-11T00:19:53.371Z,6.50
2023-04-11T00:22:20.029Z,6.53
2023-04-11T00:24:46.570Z,6.68
2023-04-11T00:27:13.104Z,6.18
2023-04-11T00:29:39.640Z,6.05
2023-04-11T00:32:06.333Z,6.00
2023-04-11T00:34:34.257Z,5.60
2023-04-11T00:37:01.685Z,6.85
2023-04-11T00:39:30.461Z,6.05
2023-04-11T00:42:03.882Z,6.20
2023-04-11T00:44:30.360Z,6.38
2023-04-11T00:46:57.318Z,4.55
2023-04-11T00:49:23.874Z,5.90
2023-04-11T00:51:50.742Z,4.80
2023-04-11T00:54:18.408Z,6.50
2023-04-11T00:56:44.952Z,6.22
2023-04-11T00:59:11.907Z,5.97
2023-04-11T01:01:38.555Z,6.05
2023-04-11T01:04:05.579Z,6.28
2023-04-11T01:06:33.001Z,5.22
2023-04-11T01:08:59.828Z,6.05
2023-04-11T01:11:26.426Z,5.63
2023-04-11T01:13:53.096Z,6.32
2023-04-11T01:16:21.716Z,5.95
2023-04-11T01:18:48.966Z,6.32
2023-04-11T01:21:16.838Z,5.50
2023-04-11T01:23:43.354Z,5.78
2023-04-11T01:26:09.850Z,5.88
2023-04-11T01:28:36.432Z,5.88
2023-04-11T01:31:02.961Z,5.70
2023-04-11T01:33:29.595Z,6.07
2023-04-11T01:35:56.145Z,5.85
2023-04-11T01:38:22.742Z,5.80
2023-04-11T01:40:49.602Z,5.50
2023-04-11T01:43:16.213Z,5.47
2023-04-11T01:45:42.693Z,5.15
2023-04-11T01:48:09.405Z,6.53
2023-04-11T01:50:36.028Z,5.85
2023-04-11T01:53:02.564Z,5.63
2023-04-11T01:55:29.255Z,5.57
2023-04-11T01:57:56.030Z,5.65
2023-04-11T02:00:22.576Z,4.90
2023-04-11T02:02:49.198Z,5.55
2023-04-11T02:05:15.963Z,5.72
2023-04-11T02:07:42.436Z,5.60
2023-04-11T02:10:09.109Z,5.15
2023-04-11T02:12:35.630Z,5.20
2023-04-11T02:15:02.114Z,5.75
2023-04-11T02:17:31.351Z,5.50
2023-04-11T02:19:58.029Z,5.68
2023-04-11T02:22:25.013Z,5.55
2023-04-11T02:24:51.589Z,5.55
2023-04-11T02:27:18.080Z,5.22
2023-04-11T02:29:44.591Z,5.20
2023-04-11T02:32:11.308Z,5.97
2023-04-11T02:34:37.919Z,5.65
2023-04-11T02:37:04.475Z,5.50
2023-04-11T02:39:31.654Z,6.35
2023-04-11T02:41:58.202Z,5.65
2023-04-11T02:44:26.368Z,5.40
2023-04-11T02:46:53.127Z,5.35
2023-04-11T02:49:20.123Z,4.82
2023-04-11T02:51:47.124Z,5.43
2023-04-11T02:54:13.741Z,5.22
2023-04-11T02:56:40.342Z,5.57
2023-04-11T02:59:07.020Z,5.60
2023-04-11T03:01:33.984Z,5.65
2023-04-11T03:04:00.996Z,4.90
2023-04-11T03:06:28.248Z,5.60
2023-04-11T03:08:55.128Z,5.47
2023-04-11T03:11:21.885Z,4.80
2023-04-11T03:13:48.377Z,5.30
2023-04-11T03:16:15.837Z,4.80
2023-04-11T03:18:42.456Z,4.70
2023-04-11T03:21:10.761Z,5.65
2023-04-11T03:23:38.189Z,5.22
2023-04-11T03:26:05.465Z,4.97
2023-04-11T03:28:32.053Z,5.05
2023-04-11T03:30:58.599Z,5.07
2023-04-11T03:33:25.306Z,5.30
2023-04-11T03:35:51.962Z,4.97
2023-04-11T03:38:18.580Z,5.07
2023-04-11T03:40:45.101Z,5.05
2023-04-11T03:43:11.643Z,4.72
2023-04-11T03:45:38.316Z,4.95
2023-04-11T03:48:05.086Z,4.63
2023-04-11T03:50:31.667Z,5.10
2023-04-11T03:52:58.345Z,4.80
2023-04-11T03:55:26.184Z,4.70
2023-04-11T03:57:52.695Z,5.25
2023-04-11T04:00:20.117Z,4.95
2023-04-11T04:02:47.031Z,4.90
2023-04-11T04:05:13.837Z,4.60
2023-04-11T04:07:40.442Z,4.78
2023-04-11T04:10:07.284Z,4.20
2023-04-11T04:12:33.979Z,4.47
2023-04-11T04:15:00.981Z,4.47
2023-04-11T04:17:27.922Z,5.15
2023-04-11T04:19:54.614Z,4.95
2023-04-11T04:22:22.358Z,5.20
2023-04-11T04:24:48.994Z,4.97
2023-04-11T04:27:18.260Z,4.78
2023-04-11T04:29:53.263Z,4.90
2023-04-11T04:32:28.841Z,4.38
2023-04-11T04:34:55.512Z,4.35
2023-04-11T04:37:23.113Z,4.75
2023-04-11T04:39:51.019Z,5.30
2023-04-11T04:42:17.789Z,4.82
2023-04-11T04:44:45.323Z,5.22
2023-04-11T04:47:11.823Z,4.70
2023-04-11T04:49:38.621Z,5.20
2023-04-11T04:52:05.303Z,4.63
2023-04-11T04:54:31.794Z,5.15
2023-04-11T04:56:58.295Z,4.95
2023-04-11T04:59:24.806Z,4.40
2023-04-11T05:01:51.770Z,4.65
2023-04-11T05:04:18.651Z,4.75
2023-04-11T05:06:45.377Z,4.05
2023-04-11T05:09:12.084Z,4.70
2023-04-11T05:11:38.644Z,4.70
2023-04-11T05:14:05.254Z,4.38
2023-04-11T05:16:32.470Z,4.40
2023-04-11T05:18:59.020Z,4.72
2023-04-11T05:21:26.603Z,4.80
2023-04-11T05:23:53.107Z,4.68
2023-04-11T05:26:19.639Z,4.30
2023-04-11T05:28:46.211Z,4.80
2023-04-11T05:31:12.766Z,4.45
2023-04-11T05:33:39.829Z,4.93
2023-04-11T05:36:06.850Z,5.05
2023-04-11T05:38:33.738Z,4.53
2023-04-11T05:41:00.682Z,4.35
2023-04-11T05:43:27.183Z,4.45
2023-04-11T05:45:53.851Z,4.68
2023-04-11T05:48:20.620Z,4.72
2023-04-11T05:50:47.192Z,5.20
2023-04-11T05:53:13.742Z,4.60
2023-04-11T05:55:40.392Z,4.82
2023-04-11T05:58:06.927Z,4.57
2023-04-11T06:00:33.516Z,4.57
2023-04-11T06:03:03.033Z,4.35
2023-04-11T06:05:31.774Z,4.90
2023-04-11T06:07:59.479Z,4.38
2023-04-11T06:10:26.216Z,4.13
2023-04-11T06:12:53.024Z,4.53
2023-04-11T06:15:19.787Z,4.10
2023-04-11T06:17:46.411Z,4.68
2023-04-11T06:20:13.116Z,4.57
2023-04-11T06:22:40.343Z,4.90
2023-04-11T06:25:07.416Z,4.72
2023-04-11T06:27:33.889Z,4.57
2023-04-11T06:30:00.594Z,4.47
2023-04-11T06:32:27.402Z,4.40
2023-04-11T06:34:54.054Z,5.10
2023-04-11T06:37:20.879Z,4.35
2023-04-11T06:39:47.491Z,4.40
2023-04-11T06:42:14.194Z,5.10
2023-04-11T06:44:40.886Z,4.20
2023-04-11T06:47:07.469Z,4.38
2023-04-11T06:49:34.021Z,4.30
2023-04-11T06:52:00.586Z,4.90
2023-04-11T06:54:27.091Z,4.82
2023-04-11T06:56:53.654Z,4.70
2023-04-11T06:59:20.645Z,4.95
2023-04-11T07:01:47.423Z,4.40
2023-04-11T07:04:14.160Z,4.88
2023-04-11T07:06:40.901Z,4.75
2023-04-11T07:09:07.524Z,4.47
2023-04-11T07:11:34.190Z,4.55
2023-04-11T07:14:00.852Z,4.63
2023-04-11T07:16:27.516Z,4.43
2023-04-11T07:18:54.478Z,4.30
2023-04-11T07:21:21.510Z,4.97
2023-04-11T07:23:48.230Z,4.85
2023-04-11T07:26:16.782Z,4.90
2023-04-11T07:28:45.158Z,5.03
2023-04-11T07:31:12.242Z,7.32
2023-04-11T07:33:38.916Z,5.88
2023-04-11T07:36:06.478Z,5.07
2023-04-11T07:38:33.426Z,37.08
2023-04-11T07:41:00.828Z,13.65
2023-04-11T07:43:28.454Z,7.75
2023-04-11T07:45:55.790Z,6.68
2023-04-11T07:48:22.882Z,6.93
2023-04-11T07:50:49.377Z,5.90
2023-04-11T07:53:15.944Z,5.70
2023-04-11T07:55:42.553Z,5.50
2023-04-11T07:58:09.046Z,5.82
2023-04-11T08:00:35.741Z,5.32
2023-04-11T08:03:09.526Z,5.10
2023-04-11T08:05:36.654Z,5.32
2023-04-11T08:08:06.226Z,5.32
2023-04-11T08:10:33.325Z,5.72
2023-04-11T08:13:00.870Z,3.63
2023-04-11T08:15:27.424Z,5.68
2023-04-11T08:17:56.630Z,5.47
2023-04-11T08:20:26.462Z,5.25
2023-04-11T08:22:52.998Z,5.88
2023-04-11T08:25:25.277Z,5.38
2023-04-11T11:17:10.092Z,3.83
2023-04-11T11:19:36.924Z,4.55
2023-04-11T11:22:04.769Z,11.82
2023-04-11T11:24:31.437Z,14.65
2023-04-11T11:26:58.591Z,13.50
2023-04-11T11:29:38.037Z,7.70
2023-04-11T11:32:04.895Z,17.25
2023-04-11T11:34:32.462Z,7.75
2023-04-11T11:37:01.507Z,6.57
2023-04-11T11:39:29.252Z,5.55
2023-04-11T11:41:56.399Z,5.18
2023-04-11T11:44:27.590Z,4.55
2023-04-11T11:47:07.071Z,4.95
2023-04-11T11:49:49.742Z,3.97
2023-04-11T11:52:40.435Z,4.28
2023-04-11T11:55:18.914Z,4.30
2023-04-11T11:57:46.217Z,4.20
2023-04-11T12:00:13.144Z,4.45
2023-04-11T12:02:40.317Z,4.25
2023-04-11T12:05:07.398Z,4.18
2023-04-11T12:07:36.796Z,5.03
2023-04-11T12:10:06.463Z,10.27
2023-04-11T12:12:37.544Z,5.20
2023-04-11T12:15:24.740Z,4.85
2023-04-11T12:17:51.962Z,4.15
2023-04-11T12:20:26.443Z,4.00
2023-04-11T12:22:54.623Z,4.25
2023-04-11T12:25:21.751Z,4.15
2023-04-11T12:27:48.450Z,3.85
2023-04-11T12:30:17.802Z,3.72
2023-04-11T12:32:47.136Z,3.35
2023-04-11T12:35:13.934Z,3.55
2023-04-11T12:37:40.595Z,3.10
2023-04-11T12:40:13.268Z,3.80
2023-04-11T12:42:53.289Z,3.67
2023-04-11T12:45:22.166Z,3.20
2023-04-11T12:47:48.798Z,3.38
2023-04-11T12:50:15.387Z,3.15
2023-04-11T12:52:41.927Z,3.47
2023-04-11T12:55:09.677Z,3.55
2023-04-11T12:57:36.744Z,3.00
2023-04-11T13:00:07.260Z,2.97
2023-04-11T13:02:42.295Z,3.00
2023-04-11T13:05:11.594Z,2.65
2023-04-11T13:07:38.501Z,2.95
2023-04-11T13:10:07.251Z,2.78
2023-04-11T13:12:39.759Z,2.70
2023-04-11T13:15:07.101Z,2.70
2023-04-11T13:17:33.839Z,2.50
2023-04-11T13:20:00.636Z,2.42
2023-04-11T13:22:27.234Z,2.50
2023-04-11T13:24:53.822Z,2.60
2023-04-11T13:27:20.370Z,2.58
2023-04-11T13:29:46.874Z,2.30
2023-04-11T13:32:13.565Z,2.45
2023-04-11T13:34:40.833Z,1.95
2023-04-11T13:37:07.760Z,2.10
2023-04-11T13:39:34.326Z,2.30
2023-04-11T13:42:00.814Z,2.28
2023-04-11T13:44:27.616Z,20.35
2023-04-11T13:46:54.432Z,4.40
2023-04-11T13:49:21.295Z,3.22
2023-04-11T13:51:47.967Z,3.28
2023-04-11T13:54:14.570Z,3.47
2023-04-11T13:56:41.495Z,2.30
2023-04-11T13:59:08.066Z,2.33
2023-04-11T14:01:34.743Z,2.40
2023-04-11T14:04:01.689Z,2.88
2023-04-11T14:06:28.561Z,2.42
2023-04-11T14:08:55.325Z,2.38
2023-04-11T14:11:21.875Z,2.33
2023-04-11T14:13:48.670Z,2.13
2023-04-11T14:16:15.251Z,2.20
2023-04-11T14:18:42.016Z,1.90
2023-04-11T14:21:08.852Z,2.20
2023-04-11T14:23:35.971Z,2.03
2023-04-11T14:26:02.562Z,2.03
2023-04-11T14:28:29.111Z,1.85
2023-04-11T14:30:56.058Z,2.10
2023-04-11T14:33:23.201Z,2.30
2023-04-11T14:35:50.629Z,2.95
2023-04-11T14:38:17.262Z,1.83
2023-04-11T14:40:44.154Z,2.22
2023-04-11T14:43:11.449Z,2.00
2023-04-11T14:45:38.239Z,2.28
2023-04-11T14:48:04.934Z,1.60
2023-04-11T14:50:31.534Z,1.90
2023-04-11T14:52:58.074Z,1.52
2023-04-11T14:55:24.707Z,2.00
2023-04-11T14:57:55.786Z,1.60
2023-04-11T15:00:23.022Z,1.73
2023-04-11T15:02:52.111Z,1.75
2023-04-11T15:05:19.676Z,1.90
2023-04-11T15:07:47.102Z,1.95
2023-04-11T15:10:14.156Z,2.17
2023-04-11T15:12:40.929Z,2.55
2023-04-11T15:15:09.021Z,2.60
2023-04-11T15:17:42.264Z,0.22
2023-04-11T15:20:09.787Z,0.20
2023-04-11T15:22:41.281Z,0.20
2023-04-11T15:25:09.139Z,0.20
2023-04-11T15:27:36.529Z,0.10
2023-04-11T15:30:04.108Z,0.20
2023-04-11T15:32:30.791Z,0.13
2023-04-11T15:34:57.897Z,0.20
2023-04-11T15:37:24.512Z,0.20
2023-04-11T15:39:51.140Z,0.20
2023-04-11T15:42:17.863Z,0.13
2023-04-11T15:44:44.760Z,0.15
2023-04-11T15:47:14.118Z,0.30
2023-04-11T15:49:41.088Z,0.10
2023-04-11T15:52:07.644Z,0.20
2023-04-11T15:54:34.141Z,0.20
2023-04-11T15:57:02.463Z,0.10
2023-04-11T15:59:29.500Z,0.20
2023-04-11T16:01:56.432Z,0.28
2023-04-11T16:04:23.223Z,0.13
2023-04-11T16:06:49.850Z,0.20
2023-04-11T16:09:16.669Z,0.20
2023-04-11T16:11:43.354Z,0.22
2023-04-11T16:14:10.110Z,0.30
2023-04-11T16:16:36.853Z,0.17
2023-04-11T16:19:03.758Z,0.20
2023-04-11T16:21:31.483Z,0.10
2023-04-11T16:23:58.187Z,0.20
2023-04-11T16:26:25.038Z,0.10
2023-04-11T16:28:51.616Z,0.20
2023-04-11T16:31:22.287Z,0.13
2023-04-11T16:33:48.770Z,0.20
2023-04-11T16:36:15.611Z,0.13
2023-04-11T16:38:42.782Z,0.15
2023-04-11T16:41:09.352Z,0.20
2023-04-11T16:43:35.865Z,0.20
2023-04-11T16:46:02.799Z,0.20
2023-04-11T16:48:30.680Z,0.20
2023-04-11T16:50:57.763Z,0.20
2023-04-11T16:53:25.572Z,0.10
2023-04-11T16:55:53.658Z,0.20
2023-04-11T16:58:20.283Z,0.20
2023-04-11T17:00:47.902Z,0.20
2023-04-11T17:03:15.279Z,0.17
2023-04-11T17:05:42.142Z,0.30
2023-04-11T17:08:08.694Z,0.30
2023-04-11T17:10:35.233Z,0.10
2023-04-11T17:13:02.102Z,0.17
2023-04-11T17:15:28.721Z,0.20
2023-04-11T17:17:55.430Z,0.20
2023-04-11T17:20:22.612Z,0.20
2023-04-11T17:22:49.186Z,0.20
2023-04-11T17:25:15.850Z,0.10
2023-04-11T17:27:42.426Z,0.30
2023-04-11T17:30:12.392Z,0.20
2023-04-11T17:32:39.278Z,0.20
2023-04-11T17:35:06.788Z,0.20
2023-04-11T17:37:34.040Z,0.20
2023-04-11T17:40:01.064Z,0.20
2023-04-11T17:42:27.651Z,0.13
2023-04-11T17:44:55.753Z,0.20
2023-04-11T17:47:23.775Z,0.20
2023-04-11T17:49:50.320Z,0.20
2023-04-11T17:52:16.950Z,0.20
2023-04-11T17:54:43.660Z,0.20
2023-04-11T17:57:10.161Z,0.10
2023-04-11T17:59:36.636Z,0.15
2023-04-11T18:02:03.274Z,0.30
2023-04-11T18:04:30.088Z,0.20
2023-04-11T18:06:58.270Z,0.20
2023-04-11T18:09:27.496Z,0.20
2023-04-11T18:11:54.062Z,0.30
2023-04-11T18:14:20.719Z,0.20
2023-04-11T18:16:47.367Z,0.20
2023-04-11T18:19:13.973Z,0.30
2023-04-11T18:21:41.088Z,0.17
2023-04-11T18:24:07.669Z,0.20
2023-04-11T18:26:35.514Z,0.20
2023-04-11T18:29:02.789Z,0.17
2023-04-11T18:31:29.481Z,0.20
2023-04-11T18:33:56.665Z,0.30
2023-04-11T18:36:24.613Z,0.20
2023-04-11T18:38:52.170Z,0.30
2023-04-11T18:41:19.352Z,0.28
2023-04-11T18:43:46.577Z,0.10
2023-04-11T18:46:14.628Z,0.10
2023-04-11T18:48:41.222Z,0.20
2023-04-11T18:51:07.739Z,0.10
2023-04-11T18:53:36.779Z,0.20
2023-04-11T18:56:03.672Z,0.30
2023-04-11T18:58:32.502Z,0.10
2023-04-11T19:01:13.463Z,0.20
2023-04-11T19:03:42.254Z,0.20
2023-04-11T19:06:09.086Z,0.20
2023-04-11T19:08:36.168Z,0.20
2023-04-11T19:11:02.914Z,0.10
2023-04-11T19:13:29.463Z,0.20
2023-04-11T19:15:56.664Z,0.10
2023-04-11T19:18:23.399Z,0.10
2023-04-11T19:20:52.109Z,0.28
2023-04-11T19:23:18.632Z,0.20
2023-04-11T19:25:45.435Z,0.10
2023-04-11T19:28:11.958Z,0.10
2023-04-11T19:30:38.559Z,0.20
2023-04-11T19:33:05.126Z,0.20
2023-04-11T19:35:31.841Z,0.20
2023-04-11T19:38:00.504Z,0.20
2023-04-11T19:40:28.199Z,0.30
2023-04-11T19:42:54.735Z,0.20
2023-04-11T19:45:22.227Z,0.20
2023-04-11T19:47:48.785Z,0.20
2023-04-11T19:50:15.356Z,0.28
2023-04-11T19:52:42.422Z,0.20
2023-04-11T19:55:12.494Z,0.20
2023-04-11T19:57:40.243Z,0.30
2023-04-11T20:00:14.418Z,0.20
2023-04-11T20:02:44.789Z,0.30
2023-04-11T20:05:11.924Z,0.10
2023-04-11T20:07:39.281Z,0.30
2023-04-11T20:10:07.865Z,0.20
2023-04-11T20:12:34.842Z,0.10
2023-04-11T20:15:01.610Z,0.20
2023-04-11T20:17:28.192Z,0.20
2023-04-11T20:19:55.771Z,0.30
2023-04-11T20:22:22.729Z,0.20
2023-04-11T20:24:49.283Z,0.15
2023-04-11T20:27:16.146Z,0.20
2023-04-11T20:29:42.655Z,0.30
2023-04-11T20:32:09.588Z,0.15
2023-04-11T20:34:36.455Z,0.20
2023-04-11T20:37:04.603Z,0.22
2023-04-11T20:39:33.775Z,0.20
2023-04-11T20:42:01.284Z,0.15
2023-04-11T20:44:27.851Z,0.20
2023-04-11T20:46:54.667Z,0.10
2023-04-11T20:49:21.253Z,0.20
2023-04-11T20:51:48.018Z,0.20
2023-04-11T20:54:14.459Z,0.20
2023-04-11T20:56:41.370Z,0.20
2023-04-11T20:59:09.166Z,0.30
2023-04-11T21:01:35.783Z,0.30
2023-04-11T21:04:03.347Z,0.20
2023-04-11T21:06:33.176Z,0.20
2023-04-11T21:09:00.202Z,0.20
2023-04-11T21:11:27.200Z,0.20
2023-04-11T21:13:54.816Z,0.10
2023-04-11T21:16:21.871Z,0.20
2023-04-11T21:18:48.724Z,0.30
2023-04-11T21:21:15.193Z,0.10
2023-04-11T21:23:42.595Z,0.20
2023-04-11T21:26:09.186Z,0.10
2023-04-11T21:28:35.896Z,0.20
2023-04-11T21:31:02.653Z,0.20
2023-04-11T21:33:29.206Z,0.20
2023-04-11T21:35:55.800Z,0.20
2023-04-11T21:38:22.397Z,0.20
2023-04-11T21:40:48.935Z,0.20
2023-04-11T21:43:15.481Z,0.15
2023-04-11T21:45:42.021Z,0.20
2023-04-11T21:48:08.634Z,0.30
2023-04-11T21:50:35.857Z,0.30
2023-04-11T21:53:02.406Z,0.20
2023-04-11T21:55:28.906Z,0.17
2023-04-11T21:57:55.742Z,0.10
2023-04-11T22:00:22.410Z,0.20
2023-04-11T22:02:49.081Z,0.20
2023-04-11T22:05:17.436Z,0.20
2023-04-11T22:07:46.771Z,0.20
2023-04-11T22:10:13.340Z,0.20
2023-04-11T22:12:40.637Z,0.10
2023-04-11T22:15:07.765Z,0.20
2023-04-11T22:17:34.889Z,0.30
2023-04-11T22:20:01.660Z,0.20
2023-04-11T22:22:28.804Z,0.25
2023-04-11T22:24:57.887Z,0.10
2023-04-11T22:27:26.325Z,0.20
2023-04-11T22:29:56.111Z,0.30
2023-04-11T22:32:23.243Z,0.20
2023-04-11T22:34:49.768Z,0.20
2023-04-11T22:37:16.335Z,0.30
2023-04-11T22:39:42.910Z,0.30
2023-04-11T22:42:10.980Z,0.30
2023-04-11T22:44:37.456Z,0.20
2023-04-11T22:47:06.643Z,0.20
2023-04-11T22:49:40.376Z,0.20
2023-04-11T22:52:15.101Z,0.10
2023-04-11T22:54:42.789Z,0.28
2023-04-11T22:57:09.572Z,0.28
2023-04-11T22:59:36.654Z,0.10
2023-04-11T23:02:03.204Z,0.20
2023-04-11T23:04:31.171Z,0.10
2023-04-11T23:06:58.255Z,0.20
2023-04-11T23:09:24.806Z,0.20
2023-04-11T23:11:51.342Z,0.13
2023-04-11T23:14:18.296Z,0.20
2023-04-11T23:16:45.011Z,0.30
2023-04-11T23:19:11.663Z,0.20
2023-04-11T23:21:38.503Z,0.30
2023-04-11T23:24:06.848Z,0.20
2023-04-11T23:26:33.448Z,0.20
2023-04-11T23:29:00.845Z,0.20
2023-04-11T23:31:27.626Z,0.20
2023-04-11T23:33:54.304Z,0.20
2023-04-11T23:36:21.053Z,0.20
2023-04-11T23:38:47.703Z,0.20
2023-04-11T23:41:14.873Z,0.15
2023-04-11T23:43:41.557Z,0.30
2023-04-11T23:46:08.188Z,0.20
2023-04-11T23:48:34.796Z,0.20
2023-04-11T23:51:01.471Z,0.22
2023-04-11T23:53:28.106Z,0.10
2023-04-11T23:55:54.666Z,0.20
2023-04-11T23:58:21.149Z,0.20
